sensor_id;sensor_type;location;lat;lon;timestamp;P1;durP1;ratioP1;P2;durP2;ratioP2
44784;SDS011;30507;53.160;8.210;2023-06-04T00:00:05;0.40;;;0.23;;
44784;SDS011;30507;53.160;8.210;2023-06-04T00:02:31;0.20;;;0.10;;
44784;SDS011;30507;53.160;8.210;2023-06-04T00:04:57;0.20;;;0.20;;
44784;SDS011;30507;53.160;8.210;2023-06-04T00:07:22;0.30;;;0.30;;
44784;SDS011;30507;53.160;8.210;2023-06-04T00:09:47;0.40;;;0.40;;
44784;SDS011;30507;53.160;8.210;2023-06-04T00:12:12;0.50;;;0.27;;
44784;SDS011;30507;53.160;8.210;2023-06-04T00:14:37;0.10;;;0.10;;
44784;SDS011;30507;53.160;8.210;2023-06-04T00:17:03;0.20;;;0.20;;
44784;SDS011;30507;53.160;8.210;2023-06-04T00:19:28;0.40;;;0.40;;
44784;SDS011;30507;53.160;8.210;2023-06-04T00:21:53;0.50;;;0.30;;
44784;SDS011;30507;53.160;8.210;2023-06-04T00:24:18;0.37;;;0.20;;
44784;SDS011;30507;53.160;8.210;2023-06-04T00:26:44;0.10;;;0.10;;
44784;SDS011;30507;53.160;8.210;2023-06-04T00:29:09;0.10;;;0.10;;
44784;SDS011;30507;53.160;8.210;2023-06-04T00:31:34;0.23;;;0.23;;
44784;SDS011;30507;53.160;8.210;2023-06-04T00:34:00;0.30;;;0.22;;
44784;SDS011;30507;53.160;8.210;2023-06-04T00:36:25;0.23;;;0.23;;
44784;SDS011;30507;53.160;8.210;2023-06-04T00:38:50;0.40;;;0.40;;
44784;SDS011;30507;53.160;8.210;2023-06-04T00:41:16;0.63;;;0.63;;
44784;SDS011;30507;53.160;8.210;2023-06-04T00:43:41;0.73;;;0.20;;
44784;SDS011;30507;53.160;8.210;2023-06-04T00:46:10;0.50;;;0.50;;
44784;SDS011;30507;53.160;8.210;2023-06-04T00:48:42;0.88;;;0.28;;
44784;SDS011;30507;53.160;8.210;2023-06-04T00:51:08;0.20;;;0.20;;
44784;SDS011;30507;53.160;8.210;2023-06-04T00:53:33;0.32;;;0.30;;
44784;SDS011;30507;53.160;8.210;2023-06-04T00:55:58;0.50;;;0.20;;
44784;SDS011;30507;53.160;8.210;2023-06-04T00:58:23;0.60;;;0.32;;
44784;SDS011;30507;53.160;8.210;2023-06-04T01:00:49;0.45;;;0.30;;
44784;SDS011;30507;53.160;8.210;2023-06-04T01:03:17;0.38;;;0.30;;
44784;SDS011;30507;53.160;8.210;2023-06-04T01:06:07;0.30;;;0.25;;
44784;SDS011;30507;53.160;8.210;2023-06-04T01:08:28;0.30;;;0.30;;
44784;SDS011;30507;53.160;8.210;2023-06-04T01:10:54;1.73;;;0.55;;
44784;SDS011;30507;53.160;8.210;2023-06-04T01:13:21;0.40;;;0.20;;
44784;SDS011;30507;53.160;8.210;2023-06-04T01:15:46;0.53;;;0.13;;
44784;SDS011;30507;53.160;8.210;2023-06-04T01:18:11;0.30;;;0.30;;
44784;SDS011;30507;53.160;8.210;2023-06-04T01:23:14;0.20;;;0.20;;
44784;SDS011;30507;53.160;8.210;2023-06-04T01:25:41;0.45;;;0.40;;
44784;SDS011;30507;53.160;8.210;2023-06-04T01:28:09;0.30;;;0.30;;
44784;SDS011;30507;53.160;8.210;2023-06-04T01:30:37;0.20;;;0.20;;
44784;SDS011;30507;53.160;8.210;2023-06-04T01:33:10;0.30;;;0.30;;
44784;SDS011;30507;53.160;8.210;2023-06-04T01:35:36;0.20;;;0.20;;
44784;SDS011;30507;53.160;8.210;2023-06-04T01:38:01;0.20;;;0.20;;
44784;SDS011;30507;53.160;8.210;2023-06-04T01:40:26;0.10;;;0.10;;
44784;SDS011;30507;53.160;8.210;2023-06-04T01:42:52;0.20;;;0.10;;
44784;SDS011;30507;53.160;8.210;2023-06-04T01:45:17;0.30;;;0.20;;
44784;SDS011;30507;53.160;8.210;2023-06-04T01:47:42;0.15;;;0.15;;
44784;SDS011;30507;53.160;8.210;2023-06-04T01:50:07;0.50;;;0.20;;
44784;SDS011;30507;53.160;8.210;2023-06-04T01:52:34;0.15;;;0.15;;
44784;SDS011;30507;53.160;8.210;2023-06-04T01:55:00;0.10;;;0.10;;
44784;SDS011;30507;53.160;8.210;2023-06-04T01:57:25;0.20;;;0.20;;
44784;SDS011;30507;53.160;8.210;2023-06-04T01:59:50;0.30;;;0.20;;
44784;SDS011;30507;53.160;8.210;2023-06-04T02:02:15;1.08;;;0.57;;
44784;SDS011;30507;53.160;8.210;2023-06-04T02:04:40;0.30;;;0.30;;
44784;SDS011;30507;53.160;8.210;2023-06-04T02:07:10;0.10;;;0.10;;
44784;SDS011;30507;53.160;8.210;2023-06-04T02:09:35;0.75;;;0.20;;
44784;SDS011;30507;53.160;8.210;2023-06-04T02:12:01;0.17;;;0.10;;
44784;SDS011;30507;53.160;8.210;2023-06-04T02:14:26;0.23;;;0.23;;
44784;SDS011;30507;53.160;8.210;2023-06-04T02:16:51;0.20;;;0.20;;
44784;SDS011;30507;53.160;8.210;2023-06-04T02:19:18;0.45;;;0.30;;
44784;SDS011;30507;53.160;8.210;2023-06-04T02:21:44;0.20;;;0.20;;
44784;SDS011;30507;53.160;8.210;2023-06-04T02:24:09;0.52;;;0.30;;
44784;SDS011;30507;53.160;8.210;2023-06-04T02:26:34;0.15;;;0.15;;
44784;SDS011;30507;53.160;8.210;2023-06-04T02:29:00;0.30;;;0.20;;
44784;SDS011;30507;53.160;8.210;2023-06-04T02:31:26;0.30;;;0.30;;
44784;SDS011;30507;53.160;8.210;2023-06-04T02:33:51;0.27;;;0.20;;
44784;SDS011;30507;53.160;8.210;2023-06-04T02:36:16;0.30;;;0.30;;
44784;SDS011;30507;53.160;8.210;2023-06-04T02:38:42;0.32;;;0.32;;
44784;SDS011;30507;53.160;8.210;2023-06-04T02:41:07;0.13;;;0.13;;
44784;SDS011;30507;53.160;8.210;2023-06-04T02:43:32;0.27;;;0.27;;
44784;SDS011;30507;53.160;8.210;2023-06-04T02:45:58;0.33;;;0.30;;
44784;SDS011;30507;53.160;8.210;2023-06-04T02:48:23;0.33;;;0.33;;
44784;SDS011;30507;53.160;8.210;2023-06-04T02:50:48;0.40;;;0.25;;
44784;SDS011;30507;53.160;8.210;2023-06-04T02:53:13;0.30;;;0.30;;
44784;SDS011;30507;53.160;8.210;2023-06-04T02:55:38;0.20;;;0.10;;
44784;SDS011;30507;53.160;8.210;2023-06-04T02:58:03;0.30;;;0.30;;
44784;SDS011;30507;53.160;8.210;2023-06-04T03:00:28;0.10;;;0.10;;
44784;SDS011;30507;53.160;8.210;2023-06-04T03:02:54;0.30;;;0.20;;
44784;SDS011;30507;53.160;8.210;2023-06-04T03:05:26;0.50;;;0.30;;
44784;SDS011;30507;53.160;8.210;2023-06-04T03:07:51;0.35;;;0.30;;
44784;SDS011;30507;53.160;8.210;2023-06-04T03:10:17;0.47;;;0.47;;
44784;SDS011;30507;53.160;8.210;2023-06-04T03:12:42;0.30;;;0.30;;
44784;SDS011;30507;53.160;8.210;2023-06-04T03:15:07;0.40;;;0.20;;
44784;SDS011;30507;53.160;8.210;2023-06-04T03:17:32;0.30;;;0.20;;
44784;SDS011;30507;53.160;8.210;2023-06-04T03:19:58;0.25;;;0.25;;
44784;SDS011;30507;53.160;8.210;2023-06-04T03:22:23;0.17;;;0.17;;
44784;SDS011;30507;53.160;8.210;2023-06-04T03:24:48;0.30;;;0.30;;
44784;SDS011;30507;53.160;8.210;2023-06-04T03:27:13;0.27;;;0.20;;
44784;SDS011;30507;53.160;8.210;2023-06-04T03:29:39;0.65;;;0.47;;
44784;SDS011;30507;53.160;8.210;2023-06-04T03:32:05;0.32;;;0.32;;
44784;SDS011;30507;53.160;8.210;2023-06-04T03:34:30;0.20;;;0.20;;
44784;SDS011;30507;53.160;8.210;2023-06-04T03:36:59;0.20;;;0.20;;
44784;SDS011;30507;53.160;8.210;2023-06-04T03:39:24;0.40;;;0.40;;
44784;SDS011;30507;53.160;8.210;2023-06-04T03:41:50;0.20;;;0.20;;
44784;SDS011;30507;53.160;8.210;2023-06-04T03:44:16;0.35;;;0.35;;
44784;SDS011;30507;53.160;8.210;2023-06-04T03:46:44;0.25;;;0.25;;
44784;SDS011;30507;53.160;8.210;2023-06-04T03:49:10;0.45;;;0.30;;
44784;SDS011;30507;53.160;8.210;2023-06-04T03:51:35;0.43;;;0.43;;
44784;SDS011;30507;53.160;8.210;2023-06-04T03:54:01;0.43;;;0.20;;
44784;SDS011;30507;53.160;8.210;2023-06-04T03:56:27;0.50;;;0.40;;
44784;SDS011;30507;53.160;8.210;2023-06-04T03:58:52;0.37;;;0.37;;
44784;SDS011;30507;53.160;8.210;2023-06-04T04:01:17;0.30;;;0.27;;
44784;SDS011;30507;53.160;8.210;2023-06-04T04:03:43;0.30;;;0.30;;
44784;SDS011;30507;53.160;8.210;2023-06-04T04:06:09;0.80;;;0.22;;
44784;SDS011;30507;53.160;8.210;2023-06-04T04:08:35;0.43;;;0.43;;
44784;SDS011;30507;53.160;8.210;2023-06-04T04:11:00;0.20;;;0.10;;
44784;SDS011;30507;53.160;8.210;2023-06-04T04:13:26;0.20;;;0.20;;
44784;SDS011;30507;53.160;8.210;2023-06-04T04:15:51;0.43;;;0.30;;
44784;SDS011;30507;53.160;8.210;2023-06-04T04:18:17;0.70;;;0.70;;
44784;SDS011;30507;53.160;8.210;2023-06-04T04:20:44;0.30;;;0.30;;
44784;SDS011;30507;53.160;8.210;2023-06-04T04:23:10;0.57;;;0.28;;
44784;SDS011;30507;53.160;8.210;2023-06-04T04:25:36;0.50;;;0.33;;
44784;SDS011;30507;53.160;8.210;2023-06-04T04:28:01;0.38;;;0.38;;
44784;SDS011;30507;53.160;8.210;2023-06-04T04:30:27;0.38;;;0.35;;
44784;SDS011;30507;53.160;8.210;2023-06-04T04:32:53;0.40;;;0.40;;
44784;SDS011;30507;53.160;8.210;2023-06-04T04:35:18;0.40;;;0.20;;
44784;SDS011;30507;53.160;8.210;2023-06-04T04:37:44;0.33;;;0.30;;
44784;SDS011;30507;53.160;8.210;2023-06-04T04:40:09;0.30;;;0.30;;
44784;SDS011;30507;53.160;8.210;2023-06-04T04:42:35;0.40;;;0.30;;
44784;SDS011;30507;53.160;8.210;2023-06-04T04:45:00;0.28;;;0.28;;
44784;SDS011;30507;53.160;8.210;2023-06-04T04:47:25;0.30;;;0.30;;
44784;SDS011;30507;53.160;8.210;2023-06-04T04:49:51;0.30;;;0.30;;
44784;SDS011;30507;53.160;8.210;2023-06-04T04:52:16;0.32;;;0.20;;
44784;SDS011;30507;53.160;8.210;2023-06-04T04:54:41;0.22;;;0.22;;
44784;SDS011;30507;53.160;8.210;2023-06-04T04:57:06;0.53;;;0.20;;
44784;SDS011;30507;53.160;8.210;2023-06-04T04:59:32;0.30;;;0.30;;
44784;SDS011;30507;53.160;8.210;2023-06-04T05:01:57;0.10;;;0.10;;
44784;SDS011;30507;53.160;8.210;2023-06-04T05:04:22;0.37;;;0.37;;
44784;SDS011;30507;53.160;8.210;2023-06-04T05:06:47;0.10;;;0.10;;
44784;SDS011;30507;53.160;8.210;2023-06-04T05:09:13;0.20;;;0.20;;
44784;SDS011;30507;53.160;8.210;2023-06-04T05:11:38;0.20;;;0.20;;
44784;SDS011;30507;53.160;8.210;2023-06-04T05:14:03;0.50;;;0.35;;
44784;SDS011;30507;53.160;8.210;2023-06-04T05:16:28;0.10;;;0.10;;
44784;SDS011;30507;53.160;8.210;2023-06-04T05:18:54;0.20;;;0.20;;
44784;SDS011;30507;53.160;8.210;2023-06-04T05:21:21;0.20;;;0.20;;
44784;SDS011;30507;53.160;8.210;2023-06-04T05:23:46;0.20;;;0.20;;
44784;SDS011;30507;53.160;8.210;2023-06-04T05:26:13;0.60;;;0.40;;
44784;SDS011;30507;53.160;8.210;2023-06-04T05:28:38;0.40;;;0.40;;
44784;SDS011;30507;53.160;8.210;2023-06-04T05:31:03;0.20;;;0.20;;
44784;SDS011;30507;53.160;8.210;2023-06-04T05:33:30;0.10;;;0.10;;
44784;SDS011;30507;53.160;8.210;2023-06-04T05:35:55;0.20;;;0.20;;
44784;SDS011;30507;53.160;8.210;2023-06-04T05:38:22;0.30;;;0.30;;
44784;SDS011;30507;53.160;8.210;2023-06-04T05:40:50;0.28;;;0.15;;
44784;SDS011;30507;53.160;8.210;2023-06-04T05:43:17;0.45;;;0.30;;
44784;SDS011;30507;53.160;8.210;2023-06-04T05:45:42;0.20;;;0.20;;
44784;SDS011;30507;53.160;8.210;2023-06-04T05:48:07;0.23;;;0.10;;
44784;SDS011;30507;53.160;8.210;2023-06-04T05:50:33;0.15;;;0.15;;
44784;SDS011;30507;53.160;8.210;2023-06-04T05:52:58;0.20;;;0.20;;
44784;SDS011;30507;53.160;8.210;2023-06-04T05:55:23;0.20;;;0.20;;
44784;SDS011;30507;53.160;8.210;2023-06-04T05:57:49;0.30;;;0.20;;
44784;SDS011;30507;53.160;8.210;2023-06-04T06:00:16;0.75;;;0.35;;
44784;SDS011;30507;53.160;8.210;2023-06-04T06:02:42;0.20;;;0.20;;
44784;SDS011;30507;53.160;8.210;2023-06-04T06:05:08;0.50;;;0.30;;
44784;SDS011;30507;53.160;8.210;2023-06-04T06:07:33;0.23;;;0.20;;
44784;SDS011;30507;53.160;8.210;2023-06-04T06:09:59;0.55;;;0.28;;
44784;SDS011;30507;53.160;8.210;2023-06-04T06:12:24;0.10;;;0.10;;
44784;SDS011;30507;53.160;8.210;2023-06-04T06:14:49;0.40;;;0.40;;
44784;SDS011;30507;53.160;8.210;2023-06-04T06:17:14;0.53;;;0.30;;
44784;SDS011;30507;53.160;8.210;2023-06-04T06:19:39;0.25;;;0.15;;
44784;SDS011;30507;53.160;8.210;2023-06-04T06:22:05;0.33;;;0.33;;
44784;SDS011;30507;53.160;8.210;2023-06-04T06:24:30;0.30;;;0.30;;
44784;SDS011;30507;53.160;8.210;2023-06-04T06:26:55;0.10;;;0.10;;
44784;SDS011;30507;53.160;8.210;2023-06-04T06:29:20;0.60;;;0.20;;
44784;SDS011;30507;53.160;8.210;2023-06-04T06:31:46;0.30;;;0.25;;
44784;SDS011;30507;53.160;8.210;2023-06-04T06:34:11;1.67;;;0.63;;
44784;SDS011;30507;53.160;8.210;2023-06-04T06:36:36;0.20;;;0.20;;
44784;SDS011;30507;53.160;8.210;2023-06-04T06:39:01;0.60;;;0.37;;
44784;SDS011;30507;53.160;8.210;2023-06-04T06:41:27;0.30;;;0.30;;
44784;SDS011;30507;53.160;8.210;2023-06-04T06:43:52;0.28;;;0.28;;
44784;SDS011;30507;53.160;8.210;2023-06-04T06:46:17;1.63;;;0.40;;
44784;SDS011;30507;53.160;8.210;2023-06-04T06:48:42;4.13;;;0.60;;
44784;SDS011;30507;53.160;8.210;2023-06-04T06:51:10;3.05;;;0.40;;
44784;SDS011;30507;53.160;8.210;2023-06-04T06:53:35;1.03;;;0.67;;
44784;SDS011;30507;53.160;8.210;2023-06-04T06:56:00;6.22;;;1.23;;
44784;SDS011;30507;53.160;8.210;2023-06-04T06:58:25;5.32;;;1.67;;
44784;SDS011;30507;53.160;8.210;2023-06-04T07:00:50;2.27;;;0.90;;
44784;SDS011;30507;53.160;8.210;2023-06-04T07:03:15;3.33;;;0.90;;
44784;SDS011;30507;53.160;8.210;2023-06-04T07:05:41;1.37;;;0.73;;
44784;SDS011;30507;53.160;8.210;2023-06-04T07:08:07;2.25;;;0.95;;
44784;SDS011;30507;53.160;8.210;2023-06-04T07:10:32;1.40;;;1.20;;
44784;SDS011;30507;53.160;8.210;2023-06-04T07:12:57;1.17;;;0.63;;
44784;SDS011;30507;53.160;8.210;2023-06-04T07:15:22;1.67;;;1.07;;
44784;SDS011;30507;53.160;8.210;2023-06-04T07:17:47;3.88;;;1.02;;
44784;SDS011;30507;53.160;8.210;2023-06-04T07:20:13;3.97;;;1.60;;
44784;SDS011;30507;53.160;8.210;2023-06-04T07:22:38;3.83;;;1.10;;
44784;SDS011;30507;53.160;8.210;2023-06-04T07:25:03;2.73;;;1.37;;
44784;SDS011;30507;53.160;8.210;2023-06-04T07:27:28;5.82;;;1.30;;
44784;SDS011;30507;53.160;8.210;2023-06-04T07:29:54;5.33;;;1.40;;
44784;SDS011;30507;53.160;8.210;2023-06-04T07:32:19;1.90;;;1.10;;
44784;SDS011;30507;53.160;8.210;2023-06-04T07:34:44;2.80;;;1.00;;
44784;SDS011;30507;53.160;8.210;2023-06-04T07:37:09;5.40;;;1.33;;
44784;SDS011;30507;53.160;8.210;2023-06-04T07:39:35;5.30;;;1.63;;
44784;SDS011;30507;53.160;8.210;2023-06-04T07:42:00;2.90;;;1.40;;
44784;SDS011;30507;53.160;8.210;2023-06-04T07:44:25;3.37;;;1.90;;
44784;SDS011;30507;53.160;8.210;2023-06-04T07:46:51;2.00;;;0.95;;
44784;SDS011;30507;53.160;8.210;2023-06-04T07:49:16;1.33;;;0.77;;
44784;SDS011;30507;53.160;8.210;2023-06-04T07:51:41;4.00;;;0.90;;
44784;SDS011;30507;53.160;8.210;2023-06-04T07:54:06;4.22;;;1.00;;
44784;SDS011;30507;53.160;8.210;2023-06-04T07:56:32;5.80;;;1.63;;
44784;SDS011;30507;53.160;8.210;2023-06-04T07:58:57;4.47;;;1.53;;
44784;SDS011;30507;53.160;8.210;2023-06-04T08:01:22;2.17;;;0.73;;
44784;SDS011;30507;53.160;8.210;2023-06-04T08:03:48;5.05;;;1.00;;
44784;SDS011;30507;53.160;8.210;2023-06-04T08:06:13;6.07;;;2.50;;
44784;SDS011;30507;53.160;8.210;2023-06-04T08:08:42;6.35;;;1.33;;
44784;SDS011;30507;53.160;8.210;2023-06-04T08:11:09;5.75;;;1.40;;
44784;SDS011;30507;53.160;8.210;2023-06-04T08:13:34;3.37;;;1.10;;
44784;SDS011;30507;53.160;8.210;2023-06-04T08:15:59;3.23;;;0.97;;
44784;SDS011;30507;53.160;8.210;2023-06-04T08:18:24;1.05;;;0.77;;
44784;SDS011;30507;53.160;8.210;2023-06-04T08:20:50;3.45;;;0.98;;
44784;SDS011;30507;53.160;8.210;2023-06-04T08:23:15;4.35;;;1.27;;
44784;SDS011;30507;53.160;8.210;2023-06-04T08:25:40;2.72;;;1.27;;
44784;SDS011;30507;53.160;8.210;2023-06-04T08:28:06;1.10;;;0.93;;
44784;SDS011;30507;53.160;8.210;2023-06-04T08:30:31;2.73;;;1.00;;
44784;SDS011;30507;53.160;8.210;2023-06-04T08:32:56;2.05;;;1.10;;
44784;SDS011;30507;53.160;8.210;2023-06-04T08:35:21;2.67;;;1.10;;
44784;SDS011;30507;53.160;8.210;2023-06-04T08:37:47;4.43;;;1.77;;
44784;SDS011;30507;53.160;8.210;2023-06-04T08:40:12;3.10;;;1.13;;
44784;SDS011;30507;53.160;8.210;2023-06-04T08:42:41;2.43;;;0.83;;
44784;SDS011;30507;53.160;8.210;2023-06-04T08:45:09;1.10;;;0.70;;
44784;SDS011;30507;53.160;8.210;2023-06-04T08:47:36;1.63;;;1.20;;
44784;SDS011;30507;53.160;8.210;2023-06-04T08:50:01;1.65;;;1.25;;
44784;SDS011;30507;53.160;8.210;2023-06-04T08:52:27;2.30;;;1.20;;
44784;SDS011;30507;53.160;8.210;2023-06-04T08:54:53;2.57;;;0.97;;
44784;SDS011;30507;53.160;8.210;2023-06-04T08:57:19;1.77;;;0.90;;
44784;SDS011;30507;53.160;8.210;2023-06-04T08:59:47;2.75;;;1.30;;
44784;SDS011;30507;53.160;8.210;2023-06-04T09:04:38;1.70;;;0.80;;
44784;SDS011;30507;53.160;8.210;2023-06-04T09:07:03;3.15;;;0.80;;
44784;SDS011;30507;53.160;8.210;2023-06-04T09:09:29;3.42;;;1.42;;
44784;SDS011;30507;53.160;8.210;2023-06-04T09:11:55;2.33;;;0.90;;
44784;SDS011;30507;53.160;8.210;2023-06-04T09:14:21;2.10;;;1.15;;
44784;SDS011;30507;53.160;8.210;2023-06-04T09:16:47;1.57;;;0.80;;
44784;SDS011;30507;53.160;8.210;2023-06-04T09:19:13;1.48;;;0.82;;
44784;SDS011;30507;53.160;8.210;2023-06-04T09:21:48;1.25;;;0.77;;
44784;SDS011;30507;53.160;8.210;2023-06-04T09:24:14;2.42;;;1.42;;
44784;SDS011;30507;53.160;8.210;2023-06-04T09:26:39;1.03;;;0.83;;
44784;SDS011;30507;53.160;8.210;2023-06-04T09:29:04;1.03;;;0.60;;
44784;SDS011;30507;53.160;8.210;2023-06-04T09:31:31;1.30;;;0.90;;
44784;SDS011;30507;53.160;8.210;2023-06-04T09:34:01;1.20;;;0.70;;
44784;SDS011;30507;53.160;8.210;2023-06-04T09:36:29;1.90;;;1.10;;
44784;SDS011;30507;53.160;8.210;2023-06-04T09:38:54;1.30;;;0.77;;
44784;SDS011;30507;53.160;8.210;2023-06-04T09:41:20;1.73;;;0.80;;
44784;SDS011;30507;53.160;8.210;2023-06-04T09:43:46;2.53;;;1.20;;
44784;SDS011;30507;53.160;8.210;2023-06-04T09:46:12;1.73;;;0.90;;
44784;SDS011;30507;53.160;8.210;2023-06-04T09:48:37;3.28;;;1.48;;
44784;SDS011;30507;53.160;8.210;2023-06-04T09:51:09;1.58;;;0.90;;
44784;SDS011;30507;53.160;8.210;2023-06-04T09:53:35;1.58;;;0.80;;
44784;SDS011;30507;53.160;8.210;2023-06-04T09:56:01;2.00;;;1.10;;
44784;SDS011;30507;53.160;8.210;2023-06-04T09:58:26;2.97;;;0.90;;
44784;SDS011;30507;53.160;8.210;2023-06-04T10:00:52;0.73;;;0.60;;
44784;SDS011;30507;53.160;8.210;2023-06-04T10:03:18;1.58;;;1.20;;
44784;SDS011;30507;53.160;8.210;2023-06-04T10:05:48;1.88;;;0.60;;
44784;SDS011;30507;53.160;8.210;2023-06-04T10:08:14;1.58;;;0.60;;
44784;SDS011;30507;53.160;8.210;2023-06-04T10:10:41;3.13;;;0.73;;
44784;SDS011;30507;53.160;8.210;2023-06-04T10:13:18;0.88;;;0.60;;
44784;SDS011;30507;53.160;8.210;2023-06-04T10:15:45;0.70;;;0.50;;
44784;SDS011;30507;53.160;8.210;2023-06-04T10:18:11;1.15;;;1.05;;
44784;SDS011;30507;53.160;8.210;2023-06-04T10:20:36;0.63;;;0.63;;
44784;SDS011;30507;53.160;8.210;2023-06-04T10:23:02;2.42;;;0.60;;
44784;SDS011;30507;53.160;8.210;2023-06-04T10:25:29;1.33;;;0.57;;
44784;SDS011;30507;53.160;8.210;2023-06-04T10:27:54;1.50;;;0.53;;
44784;SDS011;30507;53.160;8.210;2023-06-04T10:30:20;1.73;;;1.17;;
44784;SDS011;30507;53.160;8.210;2023-06-04T10:32:45;2.17;;;0.77;;
44784;SDS011;30507;53.160;8.210;2023-06-04T10:35:11;1.95;;;1.02;;
44784;SDS011;30507;53.160;8.210;2023-06-04T10:37:37;1.77;;;0.80;;
44784;SDS011;30507;53.160;8.210;2023-06-04T10:40:02;1.30;;;1.20;;
44784;SDS011;30507;53.160;8.210;2023-06-04T10:42:37;1.88;;;0.95;;
44784;SDS011;30507;53.160;8.210;2023-06-04T10:45:02;0.82;;;0.70;;
44784;SDS011;30507;53.160;8.210;2023-06-04T10:47:28;1.27;;;0.80;;
44784;SDS011;30507;53.160;8.210;2023-06-04T10:50:07;0.68;;;0.40;;
44784;SDS011;30507;53.160;8.210;2023-06-04T10:52:35;0.60;;;0.40;;
44784;SDS011;30507;53.160;8.210;2023-06-04T10:55:04;0.63;;;0.40;;
44784;SDS011;30507;53.160;8.210;2023-06-04T10:57:29;0.50;;;0.50;;
44784;SDS011;30507;53.160;8.210;2023-06-04T10:59:55;1.13;;;0.83;;
44784;SDS011;30507;53.160;8.210;2023-06-04T11:02:20;1.40;;;0.60;;
44784;SDS011;30507;53.160;8.210;2023-06-04T11:04:46;1.10;;;0.70;;
44784;SDS011;30507;53.160;8.210;2023-06-04T11:07:11;0.80;;;0.80;;
44784;SDS011;30507;53.160;8.210;2023-06-04T11:09:36;1.07;;;0.53;;
44784;SDS011;30507;53.160;8.210;2023-06-04T11:12:03;0.85;;;0.43;;
44784;SDS011;30507;53.160;8.210;2023-06-04T11:14:29;0.75;;;0.70;;
44784;SDS011;30507;53.160;8.210;2023-06-04T11:16:54;1.02;;;0.52;;
44784;SDS011;30507;53.160;8.210;2023-06-04T11:19:19;0.50;;;0.43;;
44784;SDS011;30507;53.160;8.210;2023-06-04T11:21:45;0.75;;;0.28;;
44784;SDS011;30507;53.160;8.210;2023-06-04T11:24:11;0.67;;;0.50;;
44784;SDS011;30507;53.160;8.210;2023-06-04T11:26:37;0.68;;;0.68;;
44784;SDS011;30507;53.160;8.210;2023-06-04T11:29:05;1.10;;;0.60;;
44784;SDS011;30507;53.160;8.210;2023-06-04T11:31:40;1.33;;;0.50;;
44784;SDS011;30507;53.160;8.210;2023-06-04T11:34:05;0.40;;;0.40;;
44784;SDS011;30507;53.160;8.210;2023-06-04T11:36:30;1.70;;;0.63;;
44784;SDS011;30507;53.160;8.210;2023-06-04T11:38:57;1.23;;;0.88;;
44784;SDS011;30507;53.160;8.210;2023-06-04T11:41:23;1.15;;;0.47;;
44784;SDS011;30507;53.160;8.210;2023-06-04T11:43:49;1.02;;;0.57;;
44784;SDS011;30507;53.160;8.210;2023-06-04T11:46:15;1.95;;;0.80;;
44784;SDS011;30507;53.160;8.210;2023-06-04T11:48:40;1.37;;;0.63;;
44784;SDS011;30507;53.160;8.210;2023-06-04T11:51:08;0.77;;;0.30;;
44784;SDS011;30507;53.160;8.210;2023-06-04T11:53:35;3.03;;;0.65;;
44784;SDS011;30507;53.160;8.210;2023-06-04T11:56:01;1.17;;;0.50;;
44784;SDS011;30507;53.160;8.210;2023-06-04T11:58:26;0.57;;;0.40;;
44784;SDS011;30507;53.160;8.210;2023-06-04T12:00:52;0.47;;;0.40;;
44784;SDS011;30507;53.160;8.210;2023-06-04T12:03:17;0.40;;;0.40;;
44784;SDS011;30507;53.160;8.210;2023-06-04T12:05:42;0.50;;;0.50;;
44784;SDS011;30507;53.160;8.210;2023-06-04T12:08:08;0.75;;;0.50;;
44784;SDS011;30507;53.160;8.210;2023-06-04T12:10:37;0.40;;;0.30;;
44784;SDS011;30507;53.160;8.210;2023-06-04T12:13:03;0.70;;;0.50;;
44784;SDS011;30507;53.160;8.210;2023-06-04T12:15:28;0.43;;;0.43;;
44784;SDS011;30507;53.160;8.210;2023-06-04T12:17:53;0.50;;;0.50;;
44784;SDS011;30507;53.160;8.210;2023-06-04T12:20:31;0.32;;;0.32;;
44784;SDS011;30507;53.160;8.210;2023-06-04T12:22:56;1.35;;;0.40;;
44784;SDS011;30507;53.160;8.210;2023-06-04T12:25:25;0.40;;;0.40;;
44784;SDS011;30507;53.160;8.210;2023-06-04T12:27:51;0.63;;;0.63;;
44784;SDS011;30507;53.160;8.210;2023-06-04T12:30:16;1.23;;;0.63;;
44784;SDS011;30507;53.160;8.210;2023-06-04T12:32:41;0.60;;;0.60;;
44784;SDS011;30507;53.160;8.210;2023-06-04T12:35:07;1.48;;;0.90;;
44784;SDS011;30507;53.160;8.210;2023-06-04T12:37:32;1.65;;;0.40;;
44784;SDS011;30507;53.160;8.210;2023-06-04T12:39:57;0.77;;;0.50;;
44784;SDS011;30507;53.160;8.210;2023-06-04T12:42:23;0.32;;;0.30;;
44784;SDS011;30507;53.160;8.210;2023-06-04T12:44:48;1.10;;;0.82;;
44784;SDS011;30507;53.160;8.210;2023-06-04T12:47:13;0.30;;;0.30;;
44784;SDS011;30507;53.160;8.210;2023-06-04T12:49:39;0.40;;;0.40;;
44784;SDS011;30507;53.160;8.210;2023-06-04T12:52:04;0.47;;;0.43;;
44784;SDS011;30507;53.160;8.210;2023-06-04T12:54:30;0.50;;;0.50;;
44784;SDS011;30507;53.160;8.210;2023-06-04T12:56:55;0.53;;;0.53;;
44784;SDS011;30507;53.160;8.210;2023-06-04T12:59:21;0.77;;;0.50;;
44784;SDS011;30507;53.160;8.210;2023-06-04T13:01:46;1.05;;;0.50;;
44784;SDS011;30507;53.160;8.210;2023-06-04T13:04:12;1.27;;;0.60;;
44784;SDS011;30507;53.160;8.210;2023-06-04T13:06:37;1.27;;;0.60;;
44784;SDS011;30507;53.160;8.210;2023-06-04T13:09:02;1.10;;;0.45;;
44784;SDS011;30507;53.160;8.210;2023-06-04T13:11:33;0.93;;;0.93;;
44784;SDS011;30507;53.160;8.210;2023-06-04T13:13:58;0.50;;;0.50;;
44784;SDS011;30507;53.160;8.210;2023-06-04T13:16:23;0.55;;;0.52;;
44784;SDS011;30507;53.160;8.210;2023-06-04T13:18:49;0.93;;;0.50;;
44784;SDS011;30507;53.160;8.210;2023-06-04T13:21:14;0.50;;;0.45;;
44784;SDS011;30507;53.160;8.210;2023-06-04T13:23:40;0.40;;;0.30;;
44784;SDS011;30507;53.160;8.210;2023-06-04T13:26:05;0.40;;;0.40;;
44784;SDS011;30507;53.160;8.210;2023-06-04T13:28:30;0.50;;;0.30;;
44784;SDS011;30507;53.160;8.210;2023-06-04T13:30:55;0.70;;;0.63;;
44784;SDS011;30507;53.160;8.210;2023-06-04T13:33:20;0.30;;;0.20;;
44784;SDS011;30507;53.160;8.210;2023-06-04T13:35:46;0.35;;;0.35;;
44784;SDS011;30507;53.160;8.210;2023-06-04T13:38:11;0.60;;;0.60;;
44784;SDS011;30507;53.160;8.210;2023-06-04T13:40:37;0.65;;;0.50;;
44784;SDS011;30507;53.160;8.210;2023-06-04T13:43:02;0.60;;;0.60;;
44784;SDS011;30507;53.160;8.210;2023-06-04T13:45:28;0.75;;;0.40;;
44784;SDS011;30507;53.160;8.210;2023-06-04T13:47:53;0.80;;;0.40;;
44784;SDS011;30507;53.160;8.210;2023-06-04T13:50:18;0.63;;;0.63;;
44784;SDS011;30507;53.160;8.210;2023-06-04T13:52:43;0.20;;;0.17;;
44784;SDS011;30507;53.160;8.210;2023-06-04T13:55:09;2.05;;;0.40;;
44784;SDS011;30507;53.160;8.210;2023-06-04T13:57:34;0.28;;;0.28;;
44784;SDS011;30507;53.160;8.210;2023-06-04T14:00:00;1.05;;;0.90;;
44784;SDS011;30507;53.160;8.210;2023-06-04T14:02:25;0.30;;;0.30;;
44784;SDS011;30507;53.160;8.210;2023-06-04T14:04:52;0.50;;;0.50;;
44784;SDS011;30507;53.160;8.210;2023-06-04T14:07:17;3.90;;;0.80;;
44784;SDS011;30507;53.160;8.210;2023-06-04T14:09:42;1.23;;;0.40;;
44784;SDS011;30507;53.160;8.210;2023-06-04T14:12:08;0.65;;;0.40;;
44784;SDS011;30507;53.160;8.210;2023-06-04T14:14:33;0.82;;;0.77;;
44784;SDS011;30507;53.160;8.210;2023-06-04T14:17:01;1.00;;;0.88;;
44784;SDS011;30507;53.160;8.210;2023-06-04T14:19:27;2.97;;;0.90;;
44784;SDS011;30507;53.160;8.210;2023-06-04T14:21:52;0.97;;;0.30;;
44784;SDS011;30507;53.160;8.210;2023-06-04T14:24:17;3.50;;;0.73;;
44784;SDS011;30507;53.160;8.210;2023-06-04T14:26:42;1.20;;;0.80;;
44784;SDS011;30507;53.160;8.210;2023-06-04T14:29:08;2.40;;;1.47;;
44784;SDS011;30507;53.160;8.210;2023-06-04T14:31:33;2.63;;;0.60;;
44784;SDS011;30507;53.160;8.210;2023-06-04T14:33:58;0.63;;;0.50;;
44784;SDS011;30507;53.160;8.210;2023-06-04T14:36:23;1.83;;;0.70;;
44784;SDS011;30507;53.160;8.210;2023-06-04T14:38:48;3.67;;;0.77;;
44784;SDS011;30507;53.160;8.210;2023-06-04T14:41:14;2.72;;;0.52;;
44784;SDS011;30507;53.160;8.210;2023-06-04T14:43:40;3.20;;;0.88;;